Time;durP1;ratioP1;P1;durP2;ratioP2;P2;SDS_P1;SDS_P2;PMS_P1;PMS_P2;Temp;Humidity;BMP_temperature;BMP_pressure;BME280_temperature;BME280_humidity;BME280_pressure;Samples;Min_cycle;Max_cycle;Signal;HPM_P1;HPM_P2
2022/11/13 00:01:38;;;;;;;1.63;1.00;;;7.50;90.40;;;;;;4993177;28;20035;-73
2022/11/13 00:04:04;;;;;;;1.85;0.95;;;7.50;90.40;;;;;;4975135;28;20533;-72
2022/11/13 00:06:29;;;;;;;1.48;0.90;;;7.60;90.40;;;;;;4992794;28;20309;-72
2022/11/13 00:08:55;;;;;;;1.40;0.90;;;7.50;90.30;;;;;;4975044;28;20057;-73
2022/11/13 00:11:21;;;;;;;1.10;0.90;;;7.60;90.40;;;;;;4992817;28;20442;-73
2022/11/13 00:13:47;;;;;;;1.15;0.90;;;7.60;90.30;;;;;;4993092;28;20030;-72
2022/11/13 00:16:16;;;;;;;1.08;0.98;;;7.60;90.30;;;;;;4975003;28;20038;-73
2022/11/13 00:18:42;;;;;;;1.33;1.00;;;7.60;90.30;;;;;;4974927;28;20038;-73
2022/11/13 00:21:12;;;;;;;1.20;0.70;;;7.60;90.30;;;;;;4992232;28;20038;-73
2022/11/13 00:23:38;;;;;;;1.20;0.90;;;7.60;90.30;;;;;;4992235;28;20169;-73
2022/11/13 00:26:07;;;;;;;1.52;1.00;;;7.60;90.30;;;;;;4992265;28;20439;-73
2022/11/13 00:28:33;;;;;;;1.00;0.90;;;7.60;90.30;;;;;;4974711;28;20476;-73
2022/11/13 00:31:01;;;;;;;0.90;0.80;;;7.50;90.30;;;;;;4992233;28;20118;-73
2022/11/13 00:33:27;;;;;;;1.52;1.00;;;7.60;90.30;;;;;;4974810;28;20542;-73
2022/11/13 00:35:53;;;;;;;1.77;1.30;;;7.60;90.30;;;;;;4975294;28;20174;-73
2022/11/13 00:38:19;;;;;;;1.05;0.88;;;7.60;90.30;;;;;;4992659;28;20041;-73
2022/11/13 00:40:44;;;;;;;2.13;1.33;;;7.60;90.30;;;;;;4991953;28;20052;-73
2022/11/13 00:43:10;;;;;;;1.08;0.98;;;7.60;90.30;;;;;;4992658;28;20041;-73
2022/11/13 00:45:36;;;;;;;1.15;1.00;;;7.60;90.30;;;;;;4992628;28;20034;-73
2022/11/13 00:48:01;;;;;;;1.50;1.20;;;7.60;90.30;;;;;;4974659;28;20097;-73
2022/11/13 00:50:27;;;;;;;1.65;1.20;;;7.60;90.30;;;;;;4992135;28;20065;-73
2022/11/13 00:52:53;;;;;;;1.77;1.20;;;7.60;90.40;;;;;;4974514;28;20039;-73
2022/11/13 00:55:19;;;;;;;2.00;1.20;;;7.70;90.40;;;;;;4974529;28;20043;-73
2022/11/13 00:57:44;;;;;;;1.02;0.90;;;7.60;90.30;;;;;;4974390;28;20490;-73
2022/11/13 01:00:10;;;;;;;1.67;1.00;;;7.60;90.30;;;;;;4991773;28;20034;-73
2022/11/13 01:02:36;;;;;;;1.65;1.10;;;7.70;90.30;;;;;;4974423;28;20498;-73
2022/11/13 01:05:02;;;;;;;1.35;1.08;;;7.60;90.30;;;;;;4991918;28;20861;-73
2022/11/13 01:07:28;;;;;;;1.65;1.13;;;7.70;90.30;;;;;;4974117;28;20046;-73
2022/11/13 01:09:54;;;;;;;1.60;1.05;;;7.60;90.40;;;;;;4991865;28;20038;-74
2022/11/13 01:12:19;;;;;;;1.40;1.10;;;7.60;90.40;;;;;;4974282;28;20023;-73
2022/11/13 01:14:45;;;;;;;2.60;1.45;;;7.60;90.40;;;;;;4974276;28;20483;-73
2022/11/13 01:17:11;;;;;;;1.15;1.02;;;7.60;90.30;;;;;;4991845;28;20104;-73
2022/11/13 01:19:36;;;;;;;2.08;1.10;;;7.60;90.30;;;;;;4974180;28;20034;-73
2022/11/13 01:22:02;;;;;;;1.30;1.08;;;7.60;90.30;;;;;;4991999;28;20046;-73
2022/11/13 01:24:28;;;;;;;1.58;1.20;;;7.60;90.30;;;;;;4991628;28;20042;-73
2022/11/13 01:26:53;;;;;;;1.58;1.10;;;7.60;90.40;;;;;;4957852;28;20133;-73
2022/11/13 01:29:19;;;;;;;1.35;1.10;;;7.60;90.40;;;;;;4974435;28;20037;-73
2022/11/13 01:31:44;;;;;;;1.67;1.10;;;7.60;90.40;;;;;;4974494;28;20038;-73
2022/11/13 01:34:10;;;;;;;0.95;0.75;;;7.60;90.40;;;;;;4974279;28;20045;-73
2022/11/13 01:36:36;;;;;;;1.17;0.82;;;7.60;90.40;;;;;;4991616;28;20046;-73
2022/11/13 01:39:01;;;;;;;1.23;0.80;;;7.70;90.40;;;;;;4973897;28;20033;-73
2022/11/13 01:41:30;;;;;;;0.90;0.80;;;7.70;90.30;;;;;;4957751;28;20479;-73
2022/11/13 01:43:57;;;;;;;0.98;0.88;;;7.60;90.30;;;;;;4991681;28;20475;-73
2022/11/13 01:46:33;;;;;;;1.02;0.82;;;7.60;90.30;;;;;;4991800;28;20041;-73
2022/11/13 01:49:24;;;;;;;1.23;0.85;;;7.50;90.30;;;;;;4973690;28;20054;-73
2022/11/13 01:52:03;;;;;;;1.52;0.90;;;7.60;90.40;;;;;;4962580;28;20035;-73
2022/11/13 01:54:33;;;;;;;1.48;0.98;;;7.50;90.40;;;;;;4994827;28;20088;-73
2022/11/13 01:57:01;;;;;;;1.10;0.80;;;7.50;90.40;;;;;;4994560;28;20486;-73
2022/11/13 01:59:33;;;;;;;1.33;0.93;;;7.50;90.40;;;;;;4977388;28;20100;-73
2022/11/13 02:01:59;;;;;;;0.70;0.70;;;7.50;90.50;;;;;;4994638;28;20062;-73
2022/11/13 02:04:27;;;;;;;1.52;1.00;;;7.50;90.50;;;;;;4994698;28;20039;-73
2022/11/13 02:07:04;;;;;;;1.35;0.82;;;7.50;90.50;;;;;;4994661;28;20414;-73
2022/11/13 02:09:35;;;;;;;1.08;0.90;;;7.50;90.50;;;;;;4994677;28;20030;-73
2022/11/13 02:12:02;;;;;;;1.02;0.80;;;7.40;90.40;;;;;;4976905;28;20046;-73
2022/11/13 02:14:28;;;;;;;1.25;0.85;;;7.60;90.50;;;;;;4976897;28;20116;-73
2022/11/13 02:16:59;;;;;;;1.02;0.80;;;7.50;90.40;;;;;;4994551;28;20038;-73
2022/11/13 02:19:30;;;;;;;1.33;0.90;;;7.50;90.40;;;;;;4994725;28;20061;-72
2022/11/13 02:22:10;;;;;;;1.13;1.00;;;7.50;90.40;;;;;;4976796;28;20045;-72
2022/11/13 02:24:40;;;;;;;0.95;0.80;;;7.40;90.40;;;;;;4994558;28;20042;-73
2022/11/13 02:27:12;;;;;;;0.95;0.75;;;7.50;90.40;;;;;;4960583;28;20402;-73
2022/11/13 02:29:37;;;;;;;1.15;0.90;;;7.40;90.40;;;;;;4977598;28;20030;-73
2022/11/13 02:32:03;;;;;;;1.08;0.80;;;7.50;90.40;;;;;;4976593;28;20376;-73
2022/11/13 02:34:29;;;;;;;0.88;0.80;;;7.50;90.40;;;;;;4976522;28;20030;-73
2022/11/13 02:36:54;;;;;;;0.90;0.80;;;7.40;90.40;;;;;;4977063;28;20487;-73
2022/11/13 02:39:20;;;;;;;1.65;0.98;;;7.30;90.40;;;;;;4993939;28;20038;-73
2022/11/13 02:41:45;;;;;;;1.10;0.80;;;7.40;90.50;;;;;;4976336;28;20049;-73
2022/11/13 02:44:11;;;;;;;1.70;1.10;;;7.30;90.50;;;;;;4976505;28;20039;-73
2022/11/13 02:46:37;;;;;;;1.80;1.13;;;7.30;90.50;;;;;;4994225;28;20027;-73
2022/11/13 02:49:04;;;;;;;1.13;0.98;;;7.30;90.50;;;;;;4976456;28;20033;-73
2022/11/13 02:51:29;;;;;;;1.58;1.02;;;7.30;90.50;;;;;;4976919;28;20356;-73
2022/11/13 02:53:55;;;;;;;1.45;1.10;;;7.30;90.50;;;;;;4976811;28;20035;-73
2022/11/13 02:56:21;;;;;;;1.08;0.93;;;7.30;90.50;;;;;;4976663;28;20030;-73
2022/11/13 02:58:46;;;;;;;1.10;0.90;;;7.30;90.50;;;;;;4994059;28;20070;-73
2022/11/13 03:01:12;;;;;;;1.50;1.10;;;7.30;90.60;;;;;;4976155;28;20069;-73
2022/11/13 03:03:38;;;;;;;1.25;1.00;;;7.30;90.60;;;;;;4993586;28;20092;-73
2022/11/13 03:06:04;;;;;;;1.85;1.20;;;7.30;90.50;;;;;;4994177;28;20042;-73
2022/11/13 03:08:30;;;;;;;1.80;1.30;;;7.30;90.50;;;;;;4994118;28;20062;-74
2022/11/13 03:10:56;;;;;;;1.25;0.85;;;7.30;90.70;;;;;;4994100;28;20043;-73
2022/11/13 03:13:22;;;;;;;1.05;0.95;;;7.30;90.50;;;;;;4976506;28;20097;-73
2022/11/13 03:15:48;;;;;;;1.10;1.00;;;7.30;90.50;;;;;;4975963;28;20069;-73
2022/11/13 03:18:13;;;;;;;0.93;0.80;;;7.30;90.40;;;;;;4976481;28;20038;-72
2022/11/13 03:20:42;;;;;;;1.65;1.15;;;7.30;90.50;;;;;;4993207;28;20121;-72
2022/11/13 03:23:08;;;;;;;1.08;0.90;;;7.30;90.50;;;;;;4993421;28;20043;-73
2022/11/13 03:25:34;;;;;;;1.00;0.90;;;7.30;90.50;;;;;;4993184;28;20062;-72
2022/11/13 03:28:00;;;;;;;1.08;0.82;;;7.30;90.50;;;;;;4993118;28;20521;-73
2022/11/13 03:30:27;;;;;;;1.10;0.90;;;7.30;90.50;;;;;;4959772;28;20034;-73
2022/11/13 03:32:54;;;;;;;1.20;0.90;;;7.30;90.50;;;;;;4993626;28;20058;-73
2022/11/13 03:35:21;;;;;;;1.70;0.88;;;7.30;90.50;;;;;;4975539;28;20043;-72
2022/11/13 03:37:47;;;;;;;1.40;0.93;;;7.40;90.50;;;;;;4992950;28;20461;-73
2022/11/13 03:40:13;;;;;;;1.05;0.90;;;7.30;90.50;;;;;;4993490;28;20062;-73
2022/11/13 03:42:38;;;;;;;1.25;0.95;;;7.30;90.40;;;;;;4975570;28;20041;-72
2022/11/13 03:45:05;;;;;;;1.70;1.10;;;7.40;90.50;;;;;;4975426;28;20120;-73
2022/11/13 03:47:30;;;;;;;1.30;1.10;;;7.20;90.40;;;;;;4975226;28;20050;-72
2022/11/13 03:49:56;;;;;;;1.38;1.00;;;7.30;90.50;;;;;;4992801;28;20367;-72
2022/11/13 03:52:22;;;;;;;1.10;1.00;;;7.20;90.40;;;;;;4992886;28;20031;-72
2022/11/13 03:54:47;;;;;;;1.30;0.98;;;7.20;90.50;;;;;;4992920;28;20394;-73
2022/11/13 03:57:14;;;;;;;1.83;1.00;;;7.30;90.50;;;;;;4992850;28;20553;-73
2022/11/13 03:59:40;;;;;;;1.00;0.90;;;7.20;90.50;;;;;;4993000;28;20038;-72
2022/11/13 04:02:05;;;;;;;1.40;1.02;;;7.20;90.40;;;;;;4958950;28;20505;-73
2022/11/13 04:04:31;;;;;;;1.83;1.25;;;7.10;90.40;;;;;;4975277;28;20034;-73
2022/11/13 04:06:57;;;;;;;1.08;0.90;;;7.20;90.40;;;;;;4974972;28;20057;-73
2022/11/13 04:09:22;;;;;;;1.83;1.10;;;7.20;90.50;;;;;;4992463;28;20093;-72
2022/11/13 04:11:48;;;;;;;1.50;0.98;;;7.20;90.50;;;;;;4992964;28;20085;-73
2022/11/13 04:14:14;;;;;;;1.52;1.40;;;7.20;90.50;;;;;;4974078;28;20475;-72
2022/11/13 04:16:39;;;;;;;1.65;1.30;;;7.10;90.60;;;;;;4974988;28;20038;-72
2022/11/13 04:19:05;;;;;;;1.55;0.90;;;7.10;90.50;;;;;;4992884;28;20144;-72
2022/11/13 04:21:31;;;;;;;1.40;1.05;;;7.10;90.50;;;;;;4992866;28;20041;-73
2022/11/13 04:23:56;;;;;;;1.67;1.25;;;7.10;90.50;;;;;;4992692;28;20059;-73
2022/11/13 04:26:23;;;;;;;1.60;1.00;;;7.00;90.50;;;;;;4974869;28;20080;-72
2022/11/13 04:28:48;;;;;;;1.50;1.02;;;7.00;90.50;;;;;;4974746;28;20046;-72
2022/11/13 04:31:14;;;;;;;1.70;1.33;;;7.00;90.50;;;;;;4992705;28;20093;-73
2022/11/13 04:33:40;;;;;;;1.35;0.93;;;7.00;90.50;;;;;;4992540;28;20038;-73
2022/11/13 04:36:06;;;;;;;1.48;0.98;;;7.00;90.50;;;;;;4992221;28;20034;-73
2022/11/13 04:38:32;;;;;;;1.25;0.93;;;7.10;90.50;;;;;;4992249;28;20461;-73
2022/11/13 04:43:39;;;;;;;1.05;0.88;;;7.00;90.40;;;;;;4977321;28;20046;-73
2022/11/13 04:46:05;;;;;;;1.10;0.80;;;7.10;90.40;;;;;;4959010;28;20093;-73
2022/11/13 04:48:31;;;;;;;1.23;0.82;;;7.00;90.30;;;;;;4992493;28;20055;-73
2022/11/13 04:50:57;;;;;;;1.05;0.90;;;7.00;90.30;;;;;;4992437;28;20093;-73
2022/11/13 04:53:22;;;;;;;1.45;1.13;;;7.00;90.30;;;;;;4975197;28;20038;-73
2022/11/13 04:55:48;;;;;;;1.10;1.00;;;6.90;90.30;;;;;;4991970;28;20037;-73
2022/11/13 04:58:14;;;;;;;1.08;0.80;;;7.00;90.40;;;;;;4992371;28;20038;-72
2022/11/13 05:00:39;;;;;;;1.40;1.00;;;6.80;90.40;;;;;;4992441;28;20040;-73
2022/11/13 05:03:05;;;;;;;1.10;1.00;;;6.80;90.40;;;;;;4975184;28;20036;-72
2022/11/13 05:05:31;;;;;;;1.52;1.10;;;6.80;90.50;;;;;;4992054;28;20390;-72
2022/11/13 05:07:56;;;;;;;0.75;0.75;;;6.80;90.40;;;;;;4974729;28;20050;-73
2022/11/13 05:10:22;;;;;;;1.50;1.00;;;6.80;90.50;;;;;;4992086;28;20038;-73
2022/11/13 05:12:49;;;;;;;1.08;0.98;;;6.80;90.40;;;;;;4958389;28;20052;-73
2022/11/13 05:15:15;;;;;;;0.93;0.90;;;6.80;90.50;;;;;;4991965;28;20122;-72
2022/11/13 05:17:40;;;;;;;1.20;1.08;;;6.70;90.40;;;;;;4991949;28;20453;-73
2022/11/13 05:20:06;;;;;;;1.95;1.05;;;6.70;90.50;;;;;;4974780;28;20109;-73
2022/11/13 05:22:32;;;;;;;1.33;1.00;;;6.70;90.50;;;;;;4974378;28;20185;-72
2022/11/13 05:24:58;;;;;;;1.77;1.00;;;6.70;90.50;;;;;;4958237;28;20039;-73
2022/11/13 05:27:23;;;;;;;1.08;0.95;;;6.70;90.50;;;;;;4977576;28;20565;-72
2022/11/13 05:29:49;;;;;;;1.65;1.10;;;6.70;90.40;;;;;;4978319;28;20031;-72
2022/11/13 05:32:14;;;;;;;1.20;0.80;;;6.80;90.50;;;;;;4995852;28;20049;-73
2022/11/13 05:34:40;;;;;;;1.13;0.93;;;6.70;90.40;;;;;;4995394;28;20042;-73
2022/11/13 05:37:06;;;;;;;1.20;1.05;;;6.80;90.40;;;;;;4995489;28;20093;-73
2022/11/13 05:39:32;;;;;;;1.10;1.00;;;6.80;90.40;;;;;;4995397;28;20049;-73
2022/11/13 05:41:58;;;;;;;1.52;0.90;;;6.80;90.30;;;;;;4977702;28;20390;-73
2022/11/13 05:44:23;;;;;;;1.42;0.93;;;6.70;90.30;;;;;;4995300;28;20182;-73
2022/11/13 05:46:49;;;;;;;1.55;1.00;;;6.70;90.30;;;;;;4977490;28;20038;-72
2022/11/13 05:49:15;;;;;;;1.63;1.20;;;6.70;90.30;;;;;;4995361;28;20104;-73
2022/11/13 05:51:40;;;;;;;1.27;1.02;;;6.50;90.30;;;;;;4961379;28;20097;-73
2022/11/13 05:54:06;;;;;;;1.63;0.90;;;6.60;90.40;;;;;;4977635;28;20035;-73
2022/11/13 05:56:35;;;;;;;0.90;0.80;;;6.60;90.40;;;;;;4995315;28;20066;-73
2022/11/13 05:59:01;;;;;;;1.13;0.90;;;6.60;90.70;;;;;;4995048;28;20060;-73
2022/11/13 06:01:30;;;;;;;1.48;1.00;;;6.50;90.50;;;;;;4977209;28;20399;-73
2022/11/13 06:03:58;;;;;;;1.15;0.90;;;6.60;90.40;;;;;;4977230;28;20068;-72
2022/11/13 06:06:25;;;;;;;0.70;0.70;;;6.70;90.40;;;;;;4977222;28;20129;-73
2022/11/13 06:08:52;;;;;;;0.80;0.80;;;6.70;90.30;;;;;;4994486;28;20050;-73
2022/11/13 06:11:20;;;;;;;0.60;0.60;;;6.70;90.30;;;;;;4961844;28;20031;-72
2022/11/13 06:13:47;;;;;;;0.80;0.80;;;6.70;90.30;;;;;;4995202;28;20034;-73
2022/11/13 06:16:15;;;;;;;1.00;0.80;;;6.70;90.30;;;;;;4995167;28;20058;-73
2022/11/13 06:18:42;;;;;;;1.10;0.75;;;6.70;90.20;;;;;;4961034;28;20478;-73
2022/11/13 06:21:11;;;;;;;0.88;0.70;;;6.60;90.20;;;;;;4994936;28;20043;-73
2022/11/13 06:23:38;;;;;;;0.95;0.70;;;6.70;90.20;;;;;;4994927;28;20035;-73
2022/11/13 06:26:07;;;;;;;0.80;0.80;;;6.60;90.20;;;;;;4977327;28;20422;-72
2022/11/13 06:28:33;;;;;;;0.88;0.80;;;6.60;90.20;;;;;;4976932;28;20057;-73
2022/11/13 06:31:06;;;;;;;0.70;0.70;;;6.60;90.20;;;;;;4977237;28;20034;-72
2022/11/13 06:33:33;;;;;;;1.10;0.77;;;6.50;90.20;;;;;;4994945;28;20493;-73
2022/11/13 06:36:05;;;;;;;1.25;0.95;;;6.50;90.20;;;;;;4976982;28;20501;-73
2022/11/13 06:38:34;;;;;;;1.10;0.80;;;6.50;90.30;;;;;;4993822;28;20463;-74
2022/11/13 06:41:01;;;;;;;1.75;1.00;;;6.40;90.30;;;;;;4994302;28;20038;-73
2022/11/13 06:43:27;;;;;;;0.75;0.70;;;6.40;90.30;;;;;;4977521;28;20041;-73
2022/11/13 06:45:53;;;;;;;1.60;1.13;;;6.40;90.30;;;;;;4994731;28;20034;-73
2022/11/13 06:48:19;;;;;;;0.90;0.80;;;6.50;90.30;;;;;;4976742;28;20084;-73
2022/11/13 06:50:45;;;;;;;1.10;0.90;;;6.40;90.30;;;;;;4994697;28;20390;-73
2022/11/13 06:53:10;;;;;;;1.00;0.90;;;6.40;90.30;;;;;;4976445;28;20130;-73
2022/11/13 06:55:43;;;;;;;1.90;1.10;;;6.40;90.30;;;;;;4959739;28;20126;-73
2022/11/13 06:58:09;;;;;;;1.27;1.00;;;6.40;90.20;;;;;;4994057;28;20034;-73
2022/11/13 07:00:34;;;;;;;1.00;0.90;;;6.40;90.20;;;;;;4994030;28;20161;-72
2022/11/13 07:03:00;;;;;;;0.63;0.63;;;6.40;90.20;;;;;;4976924;28;20093;-72
2022/11/13 07:05:26;;;;;;;1.10;0.70;;;6.50;90.20;;;;;;4960191;28;20034;-73
2022/11/13 07:07:51;;;;;;;0.90;0.70;;;6.50;90.20;;;;;;4960136;28;20046;-73
2022/11/13 07:10:17;;;;;;;1.35;0.90;;;6.50;90.20;;;;;;4960290;28;20037;-73
2022/11/13 07:12:43;;;;;;;1.00;0.80;;;6.60;90.10;;;;;;4994188;28;20072;-73
2022/11/13 07:15:09;;;;;;;0.88;0.82;;;6.50;90.10;;;;;;4994206;28;20037;-73
2022/11/13 07:17:35;;;;;;;1.40;1.05;;;6.60;90.10;;;;;;4976778;28;20031;-72
2022/11/13 07:20:01;;;;;;;0.73;0.70;;;6.50;90.10;;;;;;4960037;28;20193;-72
2022/11/13 07:22:29;;;;;;;0.95;0.70;;;6.50;90.00;;;;;;4976095;28;20031;-73
2022/11/13 07:24:59;;;;;;;1.23;0.90;;;6.50;90.00;;;;;;4976412;28;20034;-73
2022/11/13 07:27:24;;;;;;;0.57;0.57;;;6.50;90.00;;;;;;4975852;28;20089;-73
2022/11/13 07:29:50;;;;;;;0.80;0.80;;;6.60;90.00;;;;;;4993859;28;20042;-73
2022/11/13 07:32:16;;;;;;;1.48;0.98;;;6.50;90.00;;;;;;4976593;28;20414;-72
2022/11/13 07:34:41;;;;;;;1.02;0.90;;;6.50;90.00;;;;;;4976311;28;20557;-73
2022/11/13 07:37:07;;;;;;;2.28;1.00;;;6.50;90.00;;;;;;4959770;28;20037;-73
2022/11/13 07:39:33;;;;;;;1.35;0.80;;;6.50;90.00;;;;;;4975822;28;20052;-73
2022/11/13 07:41:58;;;;;;;1.40;0.93;;;6.50;90.10;;;;;;4993502;28;20121;-72
2022/11/13 07:44:24;;;;;;;0.70;0.70;;;6.50;90.00;;;;;;4993535;28;20038;-73
2022/11/13 07:46:50;;;;;;;2.05;1.00;;;6.60;90.00;;;;;;4993579;28;20125;-73
2022/11/13 07:49:15;;;;;;;0.98;0.88;;;6.60;90.00;;;;;;4975847;28;20041;-72
2022/11/13 07:51:41;;;;;;;0.80;0.80;;;6.70;90.00;;;;;;4993498;28;20030;-72
2022/11/13 07:54:07;;;;;;;0.95;0.73;;;6.70;89.90;;;;;;4975706;28;20046;-73
2022/11/13 07:56:32;;;;;;;1.52;1.02;;;6.80;89.80;;;;;;4976212;28;20367;-73
2022/11/13 07:58:58;;;;;;;1.48;1.00;;;6.90;89.70;;;;;;4975571;28;20518;-73
2022/11/13 08:01:25;;;;;;;1.30;0.90;;;6.90;89.50;;;;;;4975698;28;20049;-73
2022/11/13 08:03:51;;;;;;;1.42;0.95;;;6.90;89.40;;;;;;4975886;28;20034;-73
2022/11/13 08:06:16;;;;;;;1.30;0.68;;;7.00;89.40;;;;;;4975537;28;20141;-73
2022/11/13 08:08:42;;;;;;;1.77;1.10;;;7.00;89.30;;;;;;4992943;28;20038;-73
2022/11/13 08:11:08;;;;;;;1.02;0.85;;;7.10;89.30;;;;;;4993390;28;20429;-73
2022/11/13 08:13:35;;;;;;;1.98;1.25;;;7.20;89.10;;;;;;4975387;28;20026;-73
2022/11/13 08:16:02;;;;;;;1.52;1.05;;;7.20;89.00;;;;;;4993100;28;20089;-72
2022/11/13 08:18:29;;;;;;;1.90;1.08;;;7.30;88.90;;;;;;4992732;28;20126;-73
2022/11/13 08:20:55;;;;;;;1.55;1.10;;;7.40;88.80;;;;;;4975635;28;20038;-73
2022/11/13 08:23:21;;;;;;;1.65;1.00;;;7.40;88.70;;;;;;4992737;28;20038;-73
2022/11/13 08:25:47;;;;;;;1.38;0.90;;;7.50;88.60;;;;;;4992738;28;20045;-73
2022/11/13 08:28:13;;;;;;;1.48;0.93;;;7.60;88.50;;;;;;4974951;28;20043;-73
2022/11/13 08:30:42;;;;;;;1.88;1.13;;;7.70;88.30;;;;;;4975305;28;20110;-73
2022/11/13 08:33:09;;;;;;;2.05;1.10;;;7.70;88.20;;;;;;4974991;28;20494;-73
2022/11/13 08:35:34;;;;;;;1.98;1.10;;;7.80;88.10;;;;;;4992532;28;20037;-73
2022/11/13 08:38:01;;;;;;;2.38;1.20;;;7.80;87.90;;;;;;4993016;28;20480;-72
2022/11/13 08:40:27;;;;;;;0.90;0.80;;;7.90;87.80;;;;;;4992646;28;20351;-73
2022/11/13 08:42:59;;;;;;;1.70;1.10;;;8.00;87.70;;;;;;4992626;28;20045;-73
2022/11/13 08:45:24;;;;;;;1.35;1.00;;;8.00;87.60;;;;;;4992466;28;20054;-73
2022/11/13 08:47:50;;;;;;;1.35;1.10;;;8.10;87.50;;;;;;4974967;28;20092;-73
2022/11/13 08:50:16;;;;;;;1.05;0.85;;;8.20;87.50;;;;;;4959285;28;20467;-73
2022/11/13 08:52:41;;;;;;;1.20;0.95;;;8.30;87.50;;;;;;4958742;28;20034;-73
2022/11/13 08:55:07;;;;;;;1.33;1.00;;;8.30;87.30;;;;;;4992401;28;20121;-73
2022/11/13 08:57:33;;;;;;;1.35;1.00;;;8.40;87.30;;;;;;4974864;28;20491;-73
2022/11/13 08:59:58;;;;;;;1.00;0.80;;;8.40;87.20;;;;;;4974900;28;20398;-73
2022/11/13 09:02:24;;;;;;;2.50;1.30;;;8.50;87.20;;;;;;4992390;28;20042;-73
2022/11/13 09:04:50;;;;;;;2.78;1.20;;;8.50;87.10;;;;;;4974765;28;20051;-73
2022/11/13 09:07:16;;;;;;;1.17;0.93;;;8.50;87.00;;;;;;4974865;28;20035;-73
2022/11/13 09:09:41;;;;;;;1.27;0.95;;;8.60;86.90;;;;;;4992362;28;20042;-73
2022/11/13 09:12:07;;;;;;;0.82;0.80;;;8.60;86.80;;;;;;4974587;28;20031;-73
2022/11/13 09:14:33;;;;;;;1.30;1.00;;;8.60;86.80;;;;;;4975152;28;20535;-73
2022/11/13 09:16:58;;;;;;;1.48;1.02;;;8.70;86.80;;;;;;4975166;28;20475;-73
2022/11/13 09:19:24;;;;;;;1.10;0.95;;;8.70;86.70;;;;;;4992070;28;20145;-74
2022/11/13 09:21:51;;;;;;;1.58;1.10;;;8.80;86.70;;;;;;4974541;28;20026;-73
2022/11/13 09:24:17;;;;;;;1.67;1.20;;;8.80;86.60;;;;;;4974477;28;20038;-73
2022/11/13 09:26:43;;;;;;;1.17;1.00;;;8.80;86.60;;;;;;4992223;28;20483;-73
2022/11/13 09:29:09;;;;;;;1.45;0.98;;;8.90;86.60;;;;;;4991872;28;20121;-73
2022/11/13 09:31:37;;;;;;;1.33;0.90;;;8.90;86.60;;;;;;4974460;28;20034;-72
2022/11/13 09:34:02;;;;;;;1.40;1.10;;;9.00;86.60;;;;;;4991750;28;20073;-72
2022/11/13 09:36:28;;;;;;;0.98;0.80;;;9.00;86.60;;;;;;4974324;28;20082;-73
2022/11/13 09:38:54;;;;;;;1.35;1.13;;;9.00;86.50;;;;;;4974943;28;20030;-73
2022/11/13 09:41:24;;;;;;;1.83;1.00;;;9.00;86.60;;;;;;4974737;28;20502;-73
2022/11/13 09:43:53;;;;;;;1.48;0.98;;;9.10;86.50;;;;;;4991750;28;20489;-74
2022/11/13 09:46:34;;;;;;;1.45;0.85;;;9.10;86.50;;;;;;4974444;28;20038;-73
2022/11/13 09:49:21;;;;;;;1.35;0.90;;;9.10;86.50;;;;;;4976229;28;20081;-73
2022/11/13 09:51:52;;;;;;;1.38;0.82;;;9.10;86.40;;;;;;4974127;28;20411;-73
2022/11/13 09:54:19;;;;;;;1.35;0.80;;;9.20;86.40;;;;;;4975085;28;20121;-73
2022/11/13 09:57:04;;;;;;;1.38;0.90;;;9.20;86.30;;;;;;4974522;28;20118;-73
2022/11/13 09:59:37;;;;;;;1.17;0.93;;;9.20;86.20;;;;;;4976173;28;20038;-73
2022/11/13 10:02:38;;;;;;;1.63;0.90;;;9.30;86.20;;;;;;4991375;28;20058;-73
2022/11/13 10:05:20;;;;;;;1.00;0.90;;;9.40;86.30;;;;;;4991612;28;20093;-73
2022/11/13 10:08:12;;;;;;;2.00;1.25;;;9.50;86.10;;;;;;4974144;28;20406;-73
2022/11/13 10:11:00;;;;;;;1.45;0.95;;;9.50;86.00;;;;;;4991321;28;20113;-73
2022/11/13 10:13:43;;;;;;;2.08;0.80;;;9.60;85.80;;;;;;4975623;28;20054;-73
2022/11/13 10:16:32;;;;;;;1.10;0.75;;;9.60;85.60;;;;;;4994670;28;20093;-73
2022/11/13 10:19:09;;;;;;;1.08;0.80;;;9.70;85.60;;;;;;4961069;28;20352;-73
2022/11/13 10:21:58;;;;;;;1.52;1.02;;;9.70;85.50;;;;;;4995014;28;20089;-73
2022/11/13 10:24:28;;;;;;;2.03;1.27;;;9.90;85.50;;;;;;4977004;28;20042;-73
2022/11/13 10:26:58;;;;;;;1.10;0.98;;;9.90;85.30;;;;;;4994727;28;20045;-73
2022/11/13 10:29:26;;;;;;;1.73;0.95;;;9.90;85.20;;;;;;4994648;28;20026;-73
2022/11/13 10:31:52;;;;;;;1.25;0.90;;;10.00;85.20;;;;;;4977730;28;20181;-74
2022/11/13 10:34:19;;;;;;;0.70;0.70;;;10.00;85.20;;;;;;4976901;28;20432;-73
2022/11/13 10:37:14;;;;;;;1.10;0.82;;;10.00;85.20;;;;;;4977425;28;20569;-74
2022/11/13 10:39:42;;;;;;;1.65;0.90;;;10.10;85.20;;;;;;4994125;28;20133;-73
2022/11/13 10:42:34;;;;;;;1.67;1.10;;;10.20;85.10;;;;;;4977140;28;20457;-73
2022/11/13 10:45:00;;;;;;;;;;;10.20;85.00;;;;;;4977347;28;20039;-73
2022/11/13 10:47:30;;;;;;;1.10;0.95;;;10.30;84.90;;;;;;4993893;28;19917;-74
2022/11/13 10:49:55;;;;;;;0.90;0.80;;;10.30;84.70;;;;;;4994567;28;20036;-74
2022/11/13 10:52:27;;;;;;;0.93;0.80;;;10.40;84.60;;;;;;4994321;28;20039;-74
2022/11/13 10:55:16;;;;;;;1.20;0.90;;;10.40;84.50;;;;;;4994006;28;20178;-73
2022/11/13 10:57:42;;;;;;;0.88;0.73;;;10.50;84.40;;;;;;4993869;28;20121;-74
2022/11/13 11:00:26;;;;;;;0.80;0.77;;;10.50;84.40;;;;;;4960696;28;20078;-73
2022/11/13 11:02:51;;;;;;;0.90;0.77;;;10.60;84.40;;;;;;4993876;28;20053;-73
2022/11/13 11:05:21;;;;;;;1.02;0.80;;;10.60;84.30;;;;;;4993874;28;20034;-73
2022/11/13 11:07:47;;;;;;;1.55;0.80;;;10.70;84.30;;;;;;4993902;28;20097;-73
2022/11/13 11:10:26;;;;;;;1.35;0.90;;;10.70;84.20;;;;;;4994142;28;20133;-74
2022/11/13 11:13:03;;;;;;;1.50;0.93;;;10.70;84.20;;;;;;4993894;28;20035;-73
2022/11/13 11:15:50;;;;;;;0.80;0.70;;;10.80;84.20;;;;;;4993634;28;20038;-73
2022/11/13 11:18:25;;;;;;;0.90;0.73;;;10.90;84.10;;;;;;4960122;28;20049;-74
2022/11/13 11:20:55;;;;;;;1.80;0.95;;;10.90;84.00;;;;;;4993656;28;20082;-73
2022/11/13 11:23:44;;;;;;;1.05;0.90;;;11.00;83.90;;;;;;4993082;28;20494;-73
2022/11/13 11:26:23;;;;;;;2.10;0.93;;;11.00;83.90;;;;;;4976350;28;20038;-73
2022/11/13 11:29:01;;;;;;;1.10;1.00;;;11.00;83.70;;;;;;4994040;28;20046;-74
2022/11/13 11:31:43;;;;;;;1.20;0.90;;;11.10;83.80;;;;;;4993857;28;20035;-73
2022/11/13 11:34:45;;;;;;;1.35;0.93;;;11.20;83.70;;;;;;4993394;28;20406;-73
2022/11/13 11:37:17;;;;;;;1.35;0.93;;;11.20;83.70;;;;;;4993939;28;20050;-73
2022/11/13 11:39:59;;;;;;;1.50;1.00;;;11.30;83.60;;;;;;4960043;28;20034;-73
2022/11/13 11:42:48;;;;;;;1.30;1.08;;;11.30;83.40;;;;;;4993894;28;20476;-73
2022/11/13 11:45:28;;;;;;;1.92;1.15;;;11.50;83.40;;;;;;4978642;28;20045;-74
2022/11/13 11:47:56;;;;;;;1.65;1.10;;;11.60;83.20;;;;;;4993082;28;20048;-73
2022/11/13 11:50:45;;;;;;;1.08;0.98;;;11.70;83.10;;;;;;4975765;28;20479;-73
2022/11/13 11:53:17;;;;;;;1.48;0.95;;;11.80;82.90;;;;;;4993476;28;20058;-72
2022/11/13 11:56:05;;;;;;;1.00;0.80;;;11.90;82.60;;;;;;4993082;28;20042;-73
2022/11/13 11:58:53;;;;;;;1.73;1.00;;;12.00;82.50;;;;;;4993593;28;20038;-73
2022/11/13 12:01:35;;;;;;;1.45;1.00;;;12.10;82.30;;;;;;4993141;28;20038;-75
2022/11/13 12:04:40;;;;;;;0.98;0.90;;;12.30;82.20;;;;;;4993511;28;20125;-74
2022/11/13 12:07:38;;;;;;;1.15;1.00;;;12.40;81.90;;;;;;4978754;28;20043;-74
2022/11/13 12:10:27;;;;;;;2.20;0.85;;;12.60;81.70;;;;;;4992656;28;20109;-74
2022/11/13 12:13:12;;;;;;;1.15;0.93;;;12.70;81.40;;;;;;4993381;28;20070;-74
2022/11/13 12:16:09;;;;;;;1.00;0.90;;;12.80;81.20;;;;;;4992934;28;20073;-75
2022/11/13 12:18:57;;;;;;;0.80;0.80;;;12.80;81.00;;;;;;4992676;28;20042;-74
2022/11/13 12:21:59;;;;;;;1.10;0.80;;;13.00;80.90;;;;;;4992902;28;20505;-74
2022/11/13 12:24:53;;;;;;;0.85;0.80;;;13.10;80.80;;;;;;4975169;28;20458;-74
2022/11/13 12:27:34;;;;;;;0.85;0.80;;;13.20;80.60;;;;;;4975128;28;20042;-74
2022/11/13 12:30:13;;;;;;;1.05;0.90;;;13.30;80.50;;;;;;4975214;28;20041;-75
2022/11/13 12:33:00;;;;;;;0.70;0.60;;;13.40;80.40;;;;;;4993133;28;20078;-75
2022/11/13 12:35:27;;;;;;;0.50;0.50;;;13.40;80.20;;;;;;4991870;28;20038;-74
2022/11/13 12:38:00;;;;;;;0.85;0.68;;;13.50;80.10;;;;;;4992471;28;20050;-74
2022/11/13 12:40:34;;;;;;;1.42;0.80;;;13.60;80.00;;;;;;4992712;28;20043;-74
2022/11/13 12:43:22;;;;;;;0.90;0.80;;;13.60;79.90;;;;;;4992839;28;20046;-74
2022/11/13 12:45:53;;;;;;;0.70;0.70;;;13.70;79.90;;;;;;4992983;28;20382;-75
2022/11/13 12:48:35;;;;;;;0.55;0.55;;;13.80;79.80;;;;;;4992799;28;20062;-75
2022/11/13 12:51:05;;;;;;;0.80;0.80;;;13.80;79.70;;;;;;4992506;28;20030;-75
2022/11/13 12:53:45;;;;;;;0.63;0.60;;;13.90;79.60;;;;;;4975202;28;20037;-75
2022/11/13 12:56:28;;;;;;;0.98;0.77;;;13.90;79.50;;;;;;4974754;28;20446;-74
2022/11/13 12:58:59;;;;;;;0.68;0.60;;;13.90;79.40;;;;;;4991823;28;20038;-74
2022/11/13 13:01:27;;;;;;;0.65;0.65;;;14.10;79.40;;;;;;4958037;28;20038;-75
2022/11/13 13:04:14;;;;;;;0.75;0.60;;;14.10;79.30;;;;;;4974561;28;20035;-74
2022/11/13 13:07:03;;;;;;;1.15;0.70;;;14.10;79.20;;;;;;4992304;28;20043;-75
2022/11/13 13:09:57;;;;;;;0.73;0.68;;;14.20;79.20;;;;;;4992007;28;20069;-75
2022/11/13 13:12:48;;;;;;;0.85;0.73;;;14.20;79.80;;;;;;4962301;28;20042;-74